Time;durP1;ratioP1;P1;durP2;ratioP2;P2;SDS_P1;SDS_P2;PMS_P1;PMS_P2;Temp;Humidity;BMP_temperature;BMP_pressure;BME280_temperature;BME280_humidity;BME280_pressure;Samples;Min_cycle;Max_cycle;Signal;HPM_P1;HPM_P2
2021/12/24 00:00:55;;;;;;;23.48;11.30;;;;;;;1.54;nan;100418.53;4976249;28;20152;-70
2021/12/24 00:03:41;;;;;;;20.90;11.18;;;;;;;1.53;nan;100417.69;4974852;28;20066;-71
2021/12/24 00:06:27;;;;;;;28.02;11.57;;;;;;;1.51;nan;100408.47;4973820;28;20045;-70
2021/12/24 00:09:20;;;;;;;24.25;12.35;;;;;;;1.42;nan;100397.31;4974017;28;20070;-70
2021/12/24 00:12:13;;;;;;;24.40;12.00;;;;;;;1.57;nan;100410.41;5023758;28;20565;-70
2021/12/24 00:15:07;;;;;;;24.98;12.40;;;;;;;1.56;nan;100407.00;5033963;28;20060;-70
2021/12/24 00:18:00;;;;;;;24.65;11.82;;;;;;;1.56;nan;100403.59;5048051;28;20037;-70
2021/12/24 00:35:40;;;;;;;23.20;11.13;;;;;;;1.60;nan;100376.31;5042491;28;20523;-77
2021/12/24 00:38:26;;;;;;;21.88;11.75;;;;;;;1.62;nan;100377.78;5043609;28;20040;-77
2021/12/24 00:41:13;;;;;;;24.90;12.07;;;;;;;1.67;nan;100379.88;5047546;28;20053;-77
2021/12/24 00:43:59;;;;;;;22.30;11.18;;;;;;;1.61;nan;100359.78;5044794;28;20033;-77
2021/12/24 00:46:45;;;;;;;21.88;11.30;;;;;;;1.65;nan;100355.88;5049908;28;20040;-77
2021/12/24 00:49:30;;;;;;;21.85;11.32;;;;;;;1.65;nan;100359.28;5052544;28;20052;-77
2021/12/24 00:52:46;;;;;;;25.55;12.25;;;;;;;1.66;nan;100355.72;5044831;28;20057;-77
2021/12/24 00:55:32;;;;;;;23.52;12.07;;;;;;;1.64;nan;100344.69;5038447;28;20108;-77
2021/12/24 00:58:18;;;;;;;20.60;11.45;;;;;;;1.70;nan;100354.41;5034336;28;20112;-77
2021/12/24 01:01:08;;;;;;;24.67;12.00;;;;;;;1.70;nan;100349.22;5041461;28;20504;-77
2021/12/24 01:03:54;;;;;;;23.55;12.48;;;;;;;1.60;nan;100335.59;5042010;28;20920;-76
2021/12/24 01:06:40;;;;;;;23.25;12.25;;;;;;;1.71;nan;100352.59;5040391;28;20048;-77
2021/12/24 01:09:25;;;;;;;25.83;12.15;;;;;;;1.73;nan;100345.47;5043301;28;20094;-77
2021/12/24 01:12:11;;;;;;;25.73;11.52;;;;;;;1.68;nan;100339.97;5050470;28;20125;-77
2021/12/24 01:14:57;;;;;;;23.98;12.50;;;;;;;1.78;nan;100343.16;5048708;28;20121;-77
2021/12/24 01:20:47;;;;;;;28.60;12.60;;;;;;;1.64;nan;100302.34;5056566;28;20403;-77
2021/12/24 01:23:46;;;;;;;26.52;12.20;;;;;;;1.75;nan;100312.38;5052996;28;20040;-77
2021/12/24 01:38:56;;;;;;;25.40;13.00;;;;;;;1.76;nan;100277.63;5006442;28;20045;-77
2021/12/24 01:44:46;;;;;;;24.90;12.90;;;;;;;1.78;nan;100280.88;5010239;28;20050;-77
2021/12/24 01:47:32;;;;;;;25.60;12.82;;;;;;;1.81;nan;100280.53;5006776;28;20045;-76
2021/12/24 01:50:19;;;;;;;24.65;12.32;;;;;;;1.82;nan;100263.97;4995878;28;20034;-76
2021/12/24 01:53:06;;;;;;;24.70;12.23;;;;;;;1.84;nan;100263.78;4987362;28;20042;-76
2021/12/24 01:55:53;;;;;;;25.75;12.35;;;;;;;1.86;nan;100267.84;5009800;28;20042;-77
2021/12/24 01:58:39;;;;;;;26.02;12.93;;;;;;;1.79;nan;100251.31;5004347;28;20038;-77
2021/12/24 02:01:27;;;;;;;26.30;12.13;;;;;;;1.88;nan;100265.88;5002088;28;20035;-76
2021/12/24 02:04:14;;;;;;;23.35;11.93;;;;;;;1.86;nan;100254.84;5004168;28;20041;-77
2021/12/24 02:07:00;;;;;;;23.63;12.13;;;;;;;1.89;nan;100244.13;5005762;28;20120;-77
2021/12/24 02:09:46;;;;;;;30.92;13.85;;;;;;;1.88;nan;100233.91;4992808;28;20066;-77
2021/12/24 02:12:34;;;;;;;29.15;12.32;;;;;;;1.94;nan;100243.63;4995278;28;20459;-78
2021/12/24 02:15:42;;;;;;;26.55;11.70;;;;;;;1.89;nan;100231.16;5049797;28;20111;-77
2021/12/24 02:30:56;;;;;;;24.05;12.30;;;;;;;1.94;nan;100229.81;5043041;28;20167;-77
2021/12/24 02:33:43;;;;;;;24.67;12.63;;;;;;;1.95;nan;100240.03;5050536;28;20388;-78
2021/12/24 02:36:29;;;;;;;27.92;13.60;;;;;;;1.95;nan;100234.84;5034566;28;20110;-77
2021/12/24 02:39:16;;;;;;;23.27;11.90;;;;;;;1.97;nan;100229.50;5049053;28;20029;-77
2021/12/24 02:42:19;;;;;;;22.90;11.95;;;;;;;1.98;nan;100231.09;5046368;28;20487;-77
2021/12/24 02:45:05;;;;;;;27.80;12.80;;;;;;;1.82;nan;100224.22;5039654;28;20041;-78
2021/12/24 02:53:59;;;;;;;22.67;12.50;;;;;;;2.02;nan;100216.78;5038838;28;20033;-78
2021/12/24 02:56:59;;;;;;;22.75;11.80;;;;;;;1.99;nan;100209.31;5044836;28;20030;-78
2021/12/24 02:59:58;;;;;;;23.33;12.13;;;;;;;2.03;nan;100201.00;5043858;28;20045;-78
2021/12/24 03:02:44;;;;;;;25.52;12.55;;;;;;;;;;5034984;28;20545;-78
2021/12/24 03:05:30;;;;;;;23.95;12.63;;;;;;;2.45;nan;100262.09;5040185;28;20495;-77
2021/12/24 03:08:15;;;;;;;24.67;13.10;;;;;;;1.44;nan;100097.78;5048737;28;20056;-79
2021/12/24 03:11:01;;;;;;;24.55;11.98;;;;;;;1.37;nan;100086.47;5050899;28;20037;-79
2021/12/24 03:13:48;;;;;;;23.70;12.40;;;;;;;1.89;nan;100157.63;5038370;28;20044;-78
2021/12/24 03:16:37;;;;;;;23.83;12.63;;;;;;;1.85;nan;100135.59;5054491;28;20088;-78
2021/12/24 03:19:27;;;;;;;23.38;12.27;;;;;;;1.52;nan;100083.13;5051532;28;20485;-78
2021/12/24 03:22:36;;;;;;;28.05;12.85;;;;;;;1.59;nan;100117.78;5034559;28;20399;-78
2021/12/24 03:25:21;;;;;;;22.60;11.85;;;;;;;1.85;nan;100149.41;5042233;28;20124;-78
2021/12/24 03:28:07;;;;;;;22.45;12.10;;;;;;;1.98;nan;100153.19;5040905;28;20120;-78
2021/12/24 03:30:53;;;;;;;25.30;12.68;;;;;;;2.15;nan;100166.84;5046255;28;20037;-76
2021/12/24 03:33:39;;;;;;;25.02;12.30;;;;;;;1.89;nan;100122.09;5045002;28;20052;-77
2021/12/24 03:36:26;;;;;;;25.02;12.73;;;;;;;2.13;nan;100146.22;5046962;28;20098;-78
2021/12/24 03:39:13;;;;;;;25.70;12.25;;;;;;;2.11;nan;100154.22;5052903;28;20033;-78
2021/12/24 03:41:59;;;;;;;25.20;11.95;;;;;;;2.06;nan;100121.94;5053398;28;20082;-77
2021/12/24 03:44:52;;;;;;;22.70;12.48;;;;;;;1.87;nan;100098.09;5045702;28;20087;-78
2021/12/24 03:47:41;;;;;;;23.75;11.70;;;;;;;1.62;nan;100049.97;5063231;28;20037;-79
2021/12/24 03:50:42;;;;;;;25.33;11.57;;;;;;;1.93;nan;100101.78;5036444;28;20037;-79
2021/12/24 03:56:34;;;;;;;23.75;11.38;;;;;;;1.87;nan;100103.28;5040957;28;20030;-78
2021/12/24 03:59:20;;;;;;;22.77;12.43;;;;;;;2.13;nan;100148.81;5049228;28;20044;-78
2021/12/24 04:02:06;;;;;;;24.63;11.70;;;;;;;1.92;nan;100133.94;5040930;28;20120;-79
2021/12/24 04:04:52;;;;;;;25.02;11.60;;;;;;;1.43;nan;100043.47;5052201;28;20052;-78
2021/12/24 04:07:38;;;;;;;26.08;12.68;;;;;;;1.54;nan;100066.41;5051617;28;20499;-78
2021/12/24 04:10:37;;;;;;;23.80;12.40;;;;;;;2.15;nan;100139.06;5048352;28;20124;-71
2021/12/24 04:13:23;;;;;;;28.67;12.80;;;;;;;2.09;nan;100127.59;5034613;28;20034;-71
2021/12/24 04:16:09;;;;;;;28.77;12.60;;;;;;;2.06;nan;100117.56;5051700;28;20526;-70
2021/12/24 04:25:04;;;;;;;25.63;12.68;;;;;;;2.08;nan;100099.19;5034275;28;20033;-69
2021/12/24 04:27:51;;;;;;;25.25;12.43;;;;;;;2.05;nan;100089.97;5044043;28;20044;-69
2021/12/24 04:30:43;;;;;;;23.30;11.88;;;;;;;2.10;nan;100092.03;5059230;28;20037;-69
2021/12/24 04:33:36;;;;;;;25.17;12.23;;;;;;;2.17;nan;100094.75;5051375;28;20453;-69
2021/12/24 04:51:26;;;;;;;25.27;12.60;;;;;;;2.15;nan;100117.50;5042437;28;20037;-69
2021/12/24 05:03:32;;;;;;;29.35;12.77;;;;;;;2.19;nan;100110.97;5051581;28;20102;-68
2021/12/24 05:09:09;;;;;;;24.42;12.57;;;;;;;2.17;nan;100084.34;5041272;28;20029;-69
2021/12/24 05:11:55;;;;;;;19.70;11.45;;;;;;;2.22;nan;100080.22;5036280;28;20073;-68
2021/12/24 05:14:41;;;;;;;23.60;12.30;;;;;;;2.23;nan;100084.47;5041693;28;20410;-68
2021/12/24 05:17:49;;;;;;;26.42;12.00;;;;;;;2.23;nan;100075.88;5041368;28;20083;-69
2021/12/24 05:23:41;;;;;;;21.33;11.27;;;;;;;2.34;nan;100073.59;5043369;28;20048;-69
2021/12/24 05:26:27;;;;;;;23.88;11.82;;;;;;;2.32;nan;100054.81;5047722;28;20049;-69
2021/12/24 05:29:14;;;;;;;22.25;11.50;;;;;;;2.40;nan;100066.09;5032025;28;20036;-69
2021/12/24 05:32:01;;;;;;;21.70;11.20;;;;;;;2.36;nan;100051.84;5034405;28;20537;-69
2021/12/24 05:34:47;;;;;;;21.90;11.60;;;;;;;2.46;nan;100060.97;5031391;28;20044;-69
2021/12/24 05:37:32;;;;;;;20.33;11.20;;;;;;;2.39;nan;100039.28;5036714;28;20041;-69
2021/12/24 05:40:18;;;;;;;24.83;11.27;;;;;;;2.47;nan;100057.41;5037394;28;20025;-78
2021/12/24 05:43:04;;;;;;;21.40;10.90;;;;;;;2.47;nan;100062.59;5025284;28;20041;-77
2021/12/24 05:45:50;;;;;;;18.10;10.20;;;;;;;2.39;nan;100060.09;5045477;28;20036;-78
2021/12/24 05:48:36;;;;;;;21.10;10.85;;;;;;;2.45;nan;100080.16;5037504;28;20404;-77
2021/12/24 05:51:22;;;;;;;22.75;11.00;;;;;;;2.39;nan;100067.06;5044320;28;20671;-78
2021/12/24 05:54:09;;;;;;;21.63;11.38;;;;;;;2.57;nan;100087.53;5034771;28;20127;-78
2021/12/24 05:56:55;;;;;;;24.48;11.45;;;;;;;2.52;nan;100062.88;5032447;28;20037;-78
2021/12/24 05:59:41;;;;;;;19.50;10.00;;;;;;;2.54;nan;100070.50;5047569;28;20044;-78
2021/12/24 06:02:27;;;;;;;23.05;11.38;;;;;;;1.92;nan;99984.13;5042737;28;20114;-78
2021/12/24 06:05:13;;;;;;;22.48;10.35;;;;;;;2.19;nan;100020.84;5035279;28;20033;-79
2021/12/24 06:07:59;;;;;;;23.35;11.25;;;;;;;2.67;nan;100083.63;5024789;28;20067;-76
2021/12/24 06:10:45;;;;;;;21.92;11.00;;;;;;;2.66;nan;100076.00;5034734;28;20049;-79
2021/12/24 06:13:31;;;;;;;19.50;10.13;;;;;;;2.61;nan;100065.34;5034761;28;20038;-79
2021/12/24 06:16:18;;;;;;;20.73;11.07;;;;;;;2.71;nan;100084.91;5037739;28;20041;-78
2021/12/24 06:19:04;;;;;;;18.70;11.18;;;;;;;2.74;nan;100081.13;5039929;28;20043;-77
2021/12/24 06:21:50;;;;;;;20.48;11.02;;;;;;;2.75;nan;100075.75;5049193;28;20534;-79
2021/12/24 06:24:41;;;;;;;24.85;11.25;;;;;;;2.23;nan;100018.72;5040139;28;20046;-76
2021/12/24 06:27:27;;;;;;;21.63;10.43;;;;;;;2.18;nan;100002.84;5038159;28;20055;-80
2021/12/24 06:30:14;;;;;;;22.95;12.05;;;;;;;2.59;nan;100065.56;5049201;28;20124;-81
2021/12/24 06:33:01;;;;;;;22.90;11.57;;;;;;;2.10;nan;99982.97;5039752;28;20028;-80
2021/12/24 06:35:46;;;;;;;27.70;11.45;;;;;;;2.01;nan;99960.66;5047479;28;20067;-78
2021/12/24 06:38:32;;;;;;;21.77;11.30;;;;;;;2.71;nan;100052.91;5063487;28;20767;-79
2021/12/24 06:41:18;;;;;;;21.00;11.10;;;;;;;2.34;nan;100003.44;5053046;28;20496;-79
2021/12/24 06:44:05;;;;;;;22.67;10.85;;;;;;;2.34;nan;100008.66;5027290;28;20048;-79
2021/12/24 06:46:51;;;;;;;23.60;11.68;;;;;;;2.83;nan;100074.84;5054187;28;20415;-74
2021/12/24 06:49:37;;;;;;;24.23;12.18;;;;;;;2.79;nan;100078.00;5050647;28;20055;-76
2021/12/24 06:52:23;;;;;;;25.67;12.05;;;;;;;2.89;nan;100079.31;5053272;28;20033;-76
2021/12/24 06:55:10;;;;;;;22.27;12.00;;;;;;;2.85;nan;100067.66;5049259;28;20037;-76
2021/12/24 06:57:56;;;;;;;22.80;10.73;;;;;;;2.86;nan;100058.88;5037627;28;20040;-75
2021/12/24 07:00:42;;;;;;;22.73;11.68;;;;;;;2.92;nan;100078.97;5045559;28;20120;-76
2021/12/24 07:03:28;;;;;;;22.65;11.38;;;;;;;2.86;nan;100071.88;5044347;28;21605;-77
2021/12/24 07:06:14;;;;;;;21.05;11.05;;;;;;;2.85;nan;100054.66;5043086;28;20075;-77
2021/12/24 07:09:00;;;;;;;22.63;11.20;;;;;;;2.90;nan;100059.31;5040780;28;20037;-77
2021/12/24 07:11:48;;;;;;;20.10;11.52;;;;;;;2.71;nan;100021.72;5038408;28;20125;-77
2021/12/24 07:14:37;;;;;;;21.42;11.57;;;;;;;2.97;nan;100068.00;5037539;28;21947;-77
2021/12/24 07:17:23;;;;;;;;;;;;;;;3.03;nan;100067.25;5046858;28;20044;-77
2021/12/24 07:20:09;;;;;;;21.10;11.13;;;;;;;3.06;nan;100072.09;5047152;28;19920;-77
2021/12/24 07:22:55;;;;;;;25.08;12.10;;;;;;;3.05;nan;100057.47;5044385;28;20441;-77
2021/12/24 07:25:41;;;;;;;21.77;10.93;;;;;;;3.02;nan;100041.41;5044695;28;20041;-77
2021/12/24 07:28:27;;;;;;;19.58;10.68;;;;;;;3.17;nan;100060.41;5044924;28;20065;-77
2021/12/24 07:31:14;;;;;;;19.30;10.55;;;;;;;3.20;nan;100057.44;5049049;28;20044;-78
2021/12/24 07:33:59;;;;;;;22.35;11.93;;;;;;;3.20;nan;100057.44;5044692;28;20033;-75
2021/12/24 07:36:45;;;;;;;21.98;11.38;;;;;;;3.28;nan;100066.91;5045871;28;20043;-76
2021/12/24 07:39:31;;;;;;;23.58;11.60;;;;;;;3.25;nan;100060.28;5049297;28;20406;-75
2021/12/24 07:42:17;;;;;;;24.15;11.77;;;;;;;3.24;nan;100047.47;5043002;28;20045;-75
2021/12/24 07:45:04;;;;;;;18.60;10.57;;;;;;;3.26;nan;100055.91;5048482;28;20175;-75
2021/12/24 07:48:06;;;;;;;23.27;10.77;;;;;;;3.36;nan;100045.97;5045781;28;20037;-75
2021/12/24 07:53:39;;;;;;;20.30;10.15;;;;;;;3.44;nan;100063.25;5048541;28;20052;-77
2021/12/24 07:56:24;;;;;;;19.83;10.93;;;;;;;3.52;nan;100056.16;5038074;28;20128;-76
2021/12/24 07:59:11;;;;;;;20.05;10.75;;;;;;;3.63;nan;100062.63;5038799;28;20045;-78
2021/12/24 08:01:57;;;;;;;25.20;11.25;;;;;;;3.52;nan;100037.94;5045044;28;20802;-79
2021/12/24 08:04:46;;;;;;;17.02;9.43;;;;;;;3.84;nan;100069.63;5042882;28;20034;-78
2021/12/24 08:07:31;;;;;;;19.73;10.13;;;;;;;3.87;nan;100065.81;5045896;28;20121;-77
2021/12/24 08:10:18;;;;;;;23.95;10.45;;;;;;;3.89;nan;100056.81;5051118;28;20500;-75
2021/12/24 08:13:04;;;;;;;22.10;10.30;;;;;;;3.90;nan;100047.22;5044908;28;20029;-77
2021/12/24 08:15:54;;;;;;;22.60;10.20;;;;;;;4.02;nan;100062.16;5046618;28;20032;-77
2021/12/24 08:18:43;;;;;;;19.90;10.30;;;;;;;4.05;nan;100038.31;5042685;28;20033;-76
2021/12/24 08:21:29;;;;;;;21.38;10.18;;;;;;;4.00;nan;100027.66;5039449;28;20044;-76
2021/12/24 08:24:15;;;;;;;20.13;10.25;;;;;;;4.15;nan;100035.34;5045569;28;20033;-77
2021/12/24 08:27:01;;;;;;;21.38;9.70;;;;;;;4.12;nan;100033.16;5035808;28;20546;-76
2021/12/24 08:29:48;;;;;;;17.92;10.43;;;;;;;4.25;nan;100061.06;5041455;28;20052;-77
2021/12/24 08:32:38;;;;;;;18.38;10.07;;;;;;;4.19;nan;100034.00;5040190;28;20116;-76
2021/12/24 08:35:24;;;;;;;19.00;9.45;;;;;;;4.30;nan;100037.03;5040337;28;20196;-75
2021/12/24 08:38:10;;;;;;;19.33;10.40;;;;;;;4.24;nan;100025.59;5048298;28;20041;-76
2021/12/24 08:40:55;;;;;;;20.45;10.02;;;;;;;4.39;nan;100043.72;5047998;28;20042;-76
2021/12/24 08:43:41;;;;;;;18.17;9.75;;;;;;;4.43;nan;100032.72;5045862;28;20107;-75
2021/12/24 08:46:27;;;;;;;22.85;11.77;;;;;;;4.41;nan;100026.88;5041498;28;20048;-76
2021/12/24 08:49:13;;;;;;;22.45;10.98;;;;;;;4.47;nan;100031.31;5042069;28;20036;-78
2021/12/24 08:51:59;;;;;;;21.50;10.63;;;;;;;4.58;nan;100032.56;5049660;28;20120;-75
2021/12/24 08:54:45;;;;;;;20.23;10.57;;;;;;;4.57;nan;100017.09;5046327;28;20781;-73
2021/12/24 08:57:31;;;;;;;18.35;9.68;;;;;;;4.57;nan;100015.28;5049605;28;20147;-76
2021/12/24 09:00:19;;;;;;;20.00;10.00;;;;;;;4.67;nan;100007.13;5046072;28;20044;-74
2021/12/24 09:03:05;;;;;;;20.33;10.13;;;;;;;4.81;nan;100032.25;5046527;28;20157;-75
2021/12/24 09:05:51;;;;;;;22.50;9.95;;;;;;;4.86;nan;100021.22;5035622;28;20114;-74
2021/12/24 09:08:36;;;;;;;19.08;10.15;;;;;;;4.91;nan;100024.06;5050041;28;20110;-74
2021/12/24 09:11:22;;;;;;;16.05;9.27;;;;;;;4.95;nan;100027.88;5045989;28;20043;-73
2021/12/24 09:14:09;;;;;;;15.32;9.35;;;;;;;4.97;nan;100023.25;5045316;28;20060;-74
2021/12/24 09:16:55;;;;;;;18.17;9.60;;;;;;;5.01;nan;100021.06;5050903;28;20033;-73
2021/12/24 09:19:46;;;;;;;18.35;9.60;;;;;;;5.07;nan;100015.03;5041568;28;20029;-74
2021/12/24 09:22:34;;;;;;;18.02;9.80;;;;;;;5.06;nan;99989.97;5048771;28;20025;-73
2021/12/24 09:25:22;;;;;;;19.52;10.25;;;;;;;5.01;nan;99974.09;5045908;28;20036;-74
2021/12/24 09:28:09;;;;;;;18.88;9.73;;;;;;;5.26;nan;99997.81;5046373;28;20166;-73
2021/12/24 09:30:55;;;;;;;20.13;9.98;;;;;;;5.24;nan;99986.75;5045280;28;20041;-73
2021/12/24 09:33:41;;;;;;;19.67;10.63;;;;;;;5.24;nan;99979.75;5039303;28;20039;-74
2021/12/24 09:36:28;;;;;;;18.95;10.10;;;;;;;5.31;nan;99977.91;5044676;28;20418;-74
2021/12/24 09:39:14;;;;;;;19.42;10.05;;;;;;;5.37;nan;99978.94;5032572;28;20045;-74
2021/12/24 09:42:01;;;;;;;16.00;9.55;;;;;;;5.48;nan;99987.97;5041830;28;20078;-74
2021/12/24 09:44:47;;;;;;;18.77;10.38;;;;;;;5.29;nan;99948.63;5040864;28;20040;-75
2021/12/24 09:47:33;;;;;;;18.52;9.93;;;;;;;5.56;nan;99981.75;5032408;28;20049;-76
2021/12/24 09:50:22;;;;;;;18.20;9.65;;;;;;;5.52;nan;99974.31;5041368;28;20045;-76
2021/12/24 09:53:07;;;;;;;16.55;9.57;;;;;;;;;;5040987;28;20573;-76
2021/12/24 09:55:53;;;;;;;17.55;9.30;;;;;;;;;;5043039;28;20410;-76
2021/12/24 09:58:39;;;;;;;24.20;11.68;;;;;;;;;;5036055;28;20049;-76
2021/12/24 10:01:32;;;;;;;17.10;10.20;;;;;;;;;;5039679;28;20033;-75
2021/12/24 10:04:19;;;;;;;21.88;10.50;;;;;;;;;;5041331;28;20043;-76
2021/12/24 10:07:09;;;;;;;21.65;10.32;;;;;;;;;;5046337;28;20395;-75
2021/12/24 10:10:05;;;;;;;21.35;10.20;;;;;;;;;;5034221;28;20491;-76
2021/12/24 10:12:51;;;;;;;20.95;11.38;;;;;;;;;;5039170;28;20044;-75
2021/12/24 10:15:49;;;;;;;18.27;10.60;;;;;;;;;;5041631;28;20199;-75
2021/12/24 10:18:41;;;;;;;29.35;11.05;;;;;;;;;;5039712;28;20033;-75
2021/12/24 10:21:28;;;;;;;21.85;10.77;;;;;;;;;;5036723;28;20037;-74
2021/12/24 10:24:17;;;;;;;16.80;9.77;;;;;;;;;;5038564;28;20870;-74
2021/12/24 10:27:03;;;;;;;17.83;9.80;;;;;;;;;;5037985;28;20028;-76
2021/12/24 10:29:49;;;;;;;20.35;9.98;;;;;;;;;;5035739;28;20117;-76
2021/12/24 10:32:39;;;;;;;22.45;9.90;;;;;;;;;;5041087;28;20131;-75
2021/12/24 10:35:28;;;;;;;17.98;10.15;;;;;;;;;;5037184;28;20091;-73
2021/12/24 10:38:19;;;;;;;20.15;10.27;;;;;;;;;;5037626;28;20476;-75
2021/12/24 10:41:06;;;;;;;21.55;11.00;;;;;;;;;;5043510;28;20029;-75
2021/12/24 10:43:52;;;;;;;17.42;10.13;;;;;;;;;;5041178;28;20040;-75
2021/12/24 10:46:37;;;;;;;16.83;9.63;;;;;;;;;;5039087;28;20380;-72
2021/12/24 10:49:36;;;;;;;21.52;10.85;;;;;;;;;;5045319;28;20041;-76
2021/12/24 10:55:11;;;;;;;18.25;10.13;;;;;;;;;;5035475;28;20115;-76
2021/12/24 10:57:59;;;;;;;19.00;10.35;;;;;;;;;;5032645;28;20123;-73
2021/12/24 11:00:48;;;;;;;17.55;9.80;;;;;;;;;;5035310;28;20578;-75
2021/12/24 11:03:34;;;;;;;17.15;9.65;;;;;;;;;;5035531;28;20045;-73
2021/12/24 11:06:21;;;;;;;18.13;10.45;;;;;;;;;;5034234;28;20072;-78
2021/12/24 11:09:07;;;;;;;21.08;10.07;;;;;;;;;;5030993;28;20051;-74
2021/12/24 11:11:55;;;;;;;20.05;10.60;;;;;;;;;;5032237;28;20553;-74
2021/12/24 11:14:41;;;;;;;19.98;10.73;;;;;;;;;;5045180;28;20392;-74
2021/12/24 11:17:38;;;;;;;20.65;10.25;;;;;;;;;;5037525;28;20560;-74
2021/12/24 11:20:24;;;;;;;18.58;10.23;;;;;;;;;;5036409;28;20040;-73
2021/12/24 11:23:12;;;;;;;22.38;10.18;;;;;;;;;;5037396;28;20036;-74
2021/12/24 11:25:59;;;;;;;15.38;9.27;;;;;;;;;;5033831;28;20072;-69
2021/12/24 11:28:45;;;;;;;17.58;9.18;;;;;;;;;;5041627;28;20381;-72
2021/12/24 11:31:32;;;;;;;24.60;10.52;;;;;;;;;;5038907;28;20412;-70
2021/12/24 11:34:18;;;;;;;21.48;11.10;;;;;;;;;;5035072;28;20034;-72
2021/12/24 11:37:03;;;;;;;21.92;11.48;;;;;;;;;;5041418;28;20041;-71
2021/12/24 11:39:49;;;;;;;20.55;11.02;;;;;;;;;;5037289;28;20048;-77
2021/12/24 11:42:39;;;;;;;21.55;11.25;;;;;;;;;;5036997;28;20041;-77
2021/12/24 11:45:26;;;;;;;22.92;11.63;;;;;;;;;;5040775;28;20041;-77
2021/12/24 11:48:11;;;;;;;26.52;12.23;;;;;;;7.85;nan;99830.75;5037022;28;20051;-77
2021/12/24 11:50:58;;;;;;;27.70;14.18;;;;;;;;;;5039187;28;20731;-78
2021/12/24 11:53:44;;;;;;;29.77;13.25;;;;;;;;;;5051472;28;20038;-74
2021/12/24 11:56:40;;;;;;;28.48;13.80;;;;;;;;;;5042635;28;20034;-74
2021/12/24 11:59:36;;;;;;;22.73;11.63;;;;;;;;;;5038210;28;20076;-76
2021/12/24 12:02:35;;;;;;;23.95;11.82;;;;;;;;;;5050029;28;20060;-77
2021/12/24 12:05:32;;;;;;;18.58;10.90;;;;;;;;;;5046361;28;20163;-75
2021/12/24 12:08:25;;;;;;;24.90;12.38;;;;;;;;;;5053607;28;20067;-76
2021/12/24 12:11:13;;;;;;;21.48;11.48;;;;;;;;;;5046453;28;20033;-76
2021/12/24 12:14:05;;;;;;;19.48;10.52;;;;;;;8.70;nan;99872.59;5035391;28;20444;-75
2021/12/24 12:16:54;;;;;;;21.48;11.85;;;;;;;8.38;nan;99810.88;5040383;28;20111;-78
2021/12/24 12:19:58;;;;;;;18.30;10.15;;;;;;;8.38;nan;99803.00;5039244;28;20041;-78
2021/12/24 12:22:54;;;;;;;20.70;10.77;;;;;;;8.48;nan;99804.09;5047197;28;20080;-78
2021/12/24 12:25:41;;;;;;;20.25;10.50;;;;;;;8.66;nan;99813.69;5032661;28;20065;-77
2021/12/24 12:28:27;;;;;;;31.52;9.88;;;;;;;8.69;nan;99781.75;5041442;28;20037;-77
2021/12/24 12:31:19;;;;;;;16.27;8.70;;;;;;;8.93;nan;99792.25;5044376;28;20399;-78
2021/12/24 12:34:40;;;;;;;14.70;8.25;;;;;;;9.22;nan;99793.16;5032513;28;20068;-78
2021/12/24 12:37:50;;;;;;;15.32;8.43;;;;;;;9.53;nan;99788.53;5041447;28;20038;-77
2021/12/24 12:40:35;;;;;;;13.60;7.70;;;;;;;9.69;nan;99772.00;5048105;28;20032;-77
2021/12/24 12:43:24;;;;;;;14.98;8.02;;;;;;;9.92;nan;99770.31;5034689;28;20100;-78
2021/12/24 12:46:19;;;;;;;15.65;8.23;;;;;;;10.12;nan;99780.41;5037923;28;20044;-78
2021/12/24 12:49:07;;;;;;;13.43;7.28;;;;;;;10.31;nan;99779.19;5035079;28;20633;-78
2021/12/24 12:51:58;;;;;;;12.35;7.45;;;;;;;10.29;nan;99765.47;5037160;28;20604;-76
2021/12/24 12:54:52;;;;;;;13.63;7.32;;;;;;;10.43;nan;99764.09;5039510;28;20110;-76
2021/12/24 12:57:40;;;;;;;13.18;7.72;;;;;;;10.58;nan;99775.91;5047442;28;20037;-77
2021/12/24 13:00:27;;;;;;;14.65;7.78;;;;;;;10.67;nan;99781.59;5048934;28;20044;-77
2021/12/24 13:03:14;;;;;;;13.90;8.15;;;;;;;10.64;nan;99782.88;5046101;28;20055;-76
2021/12/24 13:06:05;;;;;;;13.80;7.68;;;;;;;10.65;nan;99781.81;5041310;28;20052;-78
2021/12/24 13:08:55;;;;;;;17.67;7.75;;;;;;;10.75;nan;99789.88;5047867;28;20025;-78
2021/12/24 13:11:44;;;;;;;14.68;7.65;;;;;;;10.72;nan;99785.09;5054637;28;20044;-77
2021/12/24 13:14:32;;;;;;;14.05;8.00;;;;;;;10.74;nan;99788.28;5048020;28;20048;-77
2021/12/24 13:17:20;;;;;;;13.57;8.32;;;;;;;10.71;nan;99772.97;5052029;28;20095;-76
2021/12/24 13:22:27;;;;;;;13.30;7.40;;;;;;;10.82;nan;99779.16;5051428;28;20029;-77
2021/12/24 13:23:22;;;;;;;14.13;7.90;;;;;;;10.79;nan;99764.66;5039348;28;20038;-76
2021/12/24 13:26:19;;;;;;;15.60;7.70;;;;;;;10.90;nan;99775.34;5042375;28;20131;-77
2021/12/24 13:29:12;;;;;;;14.38;8.30;;;;;;;10.90;nan;99789.31;5055428;28;20048;-78
2021/12/24 13:31:58;;;;;;;15.35;8.63;;;;;;;10.86;nan;99775.03;5047711;28;20071;-78
2021/12/24 13:34:54;;;;;;;14.18;7.97;;;;;;;10.89;nan;99773.72;5046589;28;20115;-78
2021/12/24 13:37:45;;;;;;;14.63;8.20;;;;;;;10.84;nan;99775.25;5041636;28;20059;-77
2021/12/24 13:40:32;;;;;;;15.88;7.88;;;;;;;10.82;nan;99781.81;5045847;28;20130;-77
2021/12/24 13:43:19;;;;;;;15.15;7.90;;;;;;;10.76;nan;99778.31;5038304;28;20046;-77
2021/12/24 13:46:10;;;;;;;13.95;7.63;;;;;;;10.78;nan;99785.97;5040056;28;20033;-77
2021/12/24 13:54:53;;;;;;;14.02;7.57;;;;;;;10.56;nan;99767.44;5050367;28;20032;-79
2021/12/24 13:57:39;;;;;;;15.65;7.60;;;;;;;10.55;nan;99768.50;5044685;28;20041;-77
2021/12/24 14:00:28;;;;;;;16.08;7.93;;;;;;;10.51;nan;99783.16;5035494;28;20076;-75
2021/12/24 14:03:14;;;;;;;14.23;6.90;;;;;;;10.54;nan;99786.13;5032673;28;20053;-77
2021/12/24 14:06:03;;;;;;;12.70;7.40;;;;;;;10.42;nan;99770.41;5034024;28;20028;-77
2021/12/24 14:08:49;;;;;;;14.93;7.40;;;;;;;10.42;nan;99782.78;5032325;28;20403;-73
2021/12/24 14:11:36;;;;;;;13.45;7.13;;;;;;;10.41;nan;99784.63;5049106;28;20082;-77
2021/12/24 14:14:29;;;;;;;12.80;7.30;;;;;;;10.38;nan;99784.28;5048676;28;20095;-76
2021/12/24 14:20:26;;;;;;;17.63;8.85;;;;;;;10.31;nan;99781.00;5047756;28;20036;-76
2021/12/24 14:23:16;;;;;;;14.13;7.97;;;;;;;10.36;nan;99776.63;5040277;28;20115;-73
2021/12/24 14:26:04;;;;;;;14.43;7.57;;;;;;;10.27;nan;99769.34;5039235;28;20065;-76
2021/12/24 14:28:52;;;;;;;12.60;7.47;;;;;;;10.21;nan;99769.25;5031570;28;20113;-76
2021/12/24 14:31:52;;;;;;;16.00;8.88;;;;;;;10.23;nan;99779.56;5039553;28;20041;-77
2021/12/24 14:34:43;;;;;;;15.98;8.10;;;;;;;10.20;nan;99788.72;5039422;28;20041;-75
2021/12/24 14:37:35;;;;;;;16.15;8.95;;;;;;;10.13;nan;99785.44;5041259;28;20039;-77
2021/12/24 14:40:22;;;;;;;15.70;8.10;;;;;;;10.02;nan;99776.56;5038124;28;20097;-79
2021/12/24 14:43:13;;;;;;;17.10;8.88;;;;;;;10.09;nan;99792.19;5031066;28;20403;-77
2021/12/24 14:46:06;;;;;;;15.90;7.90;;;;;;;10.01;nan;99782.88;5042307;28;20037;-78
2021/12/24 14:49:03;;;;;;;16.40;7.88;;;;;;;10.01;nan;99788.13;5037124;28;20123;-78
2021/12/24 14:51:48;;;;;;;17.17;8.23;;;;;;;9.93;nan;99782.44;5034603;28;20025;-78
2021/12/24 14:54:34;;;;;;;15.68;7.90;;;;;;;9.85;nan;99774.94;5051889;28;20418;-78
2021/12/24 14:57:20;;;;;;;14.07;8.30;;;;;;;9.81;nan;99774.59;5034367;28;20088;-77
2021/12/24 15:00:07;;;;;;;15.73;9.18;;;;;;;9.78;nan;99778.50;5039923;28;20037;-78
2021/12/24 15:02:53;;;;;;;15.10;7.97;;;;;;;9.83;nan;99792.78;5045902;28;20033;-77
2021/12/24 15:05:50;;;;;;;15.10;8.32;;;;;;;9.76;nan;99780.56;5052495;28;20049;-78
2021/12/24 15:08:37;;;;;;;16.80;7.93;;;;;;;9.78;nan;99794.25;5043095;28;20576;-77
2021/12/24 15:11:25;;;;;;;16.75;8.63;;;;;;;9.81;nan;99800.88;5053247;28;20051;-77
2021/12/24 15:14:14;;;;;;;15.60;8.90;;;;;;;9.79;nan;99793.25;5045538;28;20029;-75
2021/12/24 15:17:00;;;;;;;15.00;6.93;;;;;;;9.65;nan;99777.97;5036420;28;20116;-77
2021/12/24 15:19:46;;;;;;;14.38;7.05;;;;;;;9.68;nan;99785.41;5043817;28;20037;-77
2021/12/24 15:22:31;;;;;;;12.70;6.80;;;;;;;9.66;nan;99790.09;5053343;28;20029;-75
2021/12/24 15:25:17;;;;;;;12.27;7.13;;;;;;;9.69;nan;99792.25;5052087;28;20036;-75
2021/12/24 15:28:09;;;;;;;13.25;6.53;;;;;;;9.67;nan;99792.47;5048570;28;20048;-76
2021/12/24 15:30:56;;;;;;;16.17;8.20;;;;;;;9.55;nan;99782.00;5047965;28;20453;-77